Eureka, Alaska
Current Conditions -  °F | °C
As of 12:16 AM on Sunday 26 Oct 2014 (Local Time) from PAZK Reporting Station
Overcast Overcast  
Wind Chill: 19°   Ceiling: 600
Heat Index: 19°   Visibility: 10mi
Dew Point: 18°   Wind: 0mph
Humidity: 93%   Direction: NA
Pressure: 29.66"   Gusts: NA
Location:  61.94°N, 147.17°W
Report Text: PAZK 260816Z AUTO 00000KT 10SM OVC006 M07/M08 A2966 RMK AO1
Loading
Personal Weather Stations






























Interactive Weather Map
Tropical Storm Tracking
New forecast layout! Learn more

10-Day Weather Forecast

Advertisements
Track Severe Weather on mobile